createdAt,value
2019-05-03T00:02:21.671Z,10.70
2019-05-03T00:04:51.675Z,10.50
2019-05-03T00:07:22.222Z,10.30
2019-05-03T00:09:52.051Z,10.20
2019-05-03T00:12:22.120Z,10.00
2019-05-03T00:14:51.982Z,9.90
2019-05-03T00:17:21.866Z,9.90
2019-05-03T00:19:52.841Z,9.80
2019-05-03T00:22:21.709Z,9.80
2019-05-03T00:25:03.091Z,9.60
2019-05-03T00:27:21.789Z,9.50
2019-05-03T00:29:52.267Z,9.60
2019-05-03T00:32:21.669Z,9.60
2019-05-03T00:34:52.367Z,9.50
2019-05-03T00:37:22.658Z,9.40
2019-05-03T00:39:52.826Z,9.40
2019-05-03T00:42:22.516Z,9.30
2019-05-03T00:44:51.755Z,9.30
2019-05-03T00:47:22.218Z,9.20
2019-05-03T00:49:51.844Z,9.20
2019-05-03T00:52:22.251Z,9.00
2019-05-03T00:54:52.735Z,9.00
2019-05-03T00:57:22.721Z,8.90
2019-05-03T00:59:52.810Z,8.80
2019-05-03T01:02:22.351Z,8.80
2019-05-03T01:04:51.798Z,8.80
2019-05-03T01:07:22.124Z,8.80
2019-05-03T01:09:51.776Z,9.00
2019-05-03T01:12:21.934Z,9.00
2019-05-03T01:14:52.885Z,9.00
2019-05-03T01:17:22.463Z,9.20
2019-05-03T01:19:52.592Z,9.20
2019-05-03T01:22:22.638Z,9.30
2019-05-03T01:24:53.845Z,9.40
2019-05-03T01:27:22.721Z,9.30
2019-05-03T01:29:55.692Z,9.30
2019-05-03T01:32:23.958Z,9.30
2019-05-03T01:34:55.502Z,9.30
2019-05-03T01:37:23.994Z,9.40
2019-05-03T01:39:55.753Z,9.40
2019-05-03T01:42:24.433Z,9.40
2019-05-03T01:44:56.515Z,9.40
2019-05-03T01:47:41.996Z,9.50
2019-05-03T01:50:28.810Z,9.40
2019-05-03T01:52:59.042Z,9.50
2019-05-03T01:55:46.537Z,9.60
2019-05-03T01:58:15.170Z,9.60
2019-05-03T02:00:43.774Z,9.60
2019-05-03T02:03:14.997Z,9.60
2019-05-03T02:05:52.025Z,9.50
2019-05-03T02:08:21.998Z,9.40
2019-05-03T02:10:51.806Z,9.20
2019-05-03T02:13:20.236Z,9.10
2019-05-03T02:15:48.715Z,9.00
2019-05-03T02:18:17.333Z,8.90
2019-05-03T02:20:45.668Z,8.90
2019-05-03T02:23:14.298Z,8.90
2019-05-03T02:25:55.389Z,8.90
2019-05-03T02:28:12.983Z,8.90
2019-05-03T02:30:44.124Z,9.00
2019-05-03T02:33:13.390Z,9.00
2019-05-03T02:35:43.000Z,9.10
2019-05-03T02:38:12.958Z,9.10
2019-05-03T02:40:42.973Z,9.10
2019-05-03T02:43:13.207Z,9.10
2019-05-03T02:45:45.587Z,8.90
2019-05-03T02:48:36.490Z,8.90
2019-05-03T02:51:06.515Z,8.90
2019-05-03T02:53:46.693Z,8.80
2019-05-03T02:56:29.825Z,8.70
2019-05-03T02:58:58.444Z,8.80
2019-05-03T03:01:26.921Z,8.80
2019-05-03T03:03:59.989Z,8.80
2019-05-03T03:06:28.451Z,8.80
2019-05-03T03:09:01.453Z,8.80
2019-05-03T03:11:30.605Z,8.80
2019-05-03T03:14:01.767Z,8.80
2019-05-03T03:16:31.032Z,8.80
2019-05-03T03:19:06.234Z,8.90
2019-05-03T03:21:36.271Z,9.00
2019-05-03T03:24:17.505Z,9.00
2019-05-03T03:26:47.280Z,9.00
2019-05-03T03:29:22.051Z,9.10
2019-05-03T03:32:08.441Z,9.10
2019-05-03T03:34:53.309Z,9.10
2019-05-03T03:37:15.576Z,9.20
2019-05-03T03:39:45.543Z,9.30
2019-05-03T03:42:16.215Z,9.40
2019-05-03T03:44:45.370Z,9.40
2019-05-03T03:47:16.770Z,9.40
2019-05-03T03:49:46.815Z,9.50
2019-05-03T03:52:25.470Z,9.50
2019-05-03T03:54:58.566Z,9.50
2019-05-03T03:57:27.322Z,9.60
2019-05-03T03:59:57.870Z,9.60
2019-05-03T04:02:28.047Z,9.50
2019-05-03T04:04:58.339Z,9.60
2019-05-03T04:07:28.155Z,9.70
2019-05-03T04:09:58.530Z,9.70
2019-05-03T04:12:27.161Z,9.80
2019-05-03T04:14:58.648Z,9.90
2019-05-03T04:17:45.612Z,9.90
2019-05-03T04:20:16.495Z,9.90
2019-05-03T04:22:46.425Z,10.00
2019-05-03T04:25:15.568Z,10.10
2019-05-03T04:27:45.546Z,10.20
2019-05-03T04:30:16.577Z,10.20
2019-05-03T04:33:11.551Z,10.20
2019-05-03T04:35:46.563Z,10.20
2019-05-03T04:38:16.261Z,10.20
2019-05-03T04:40:46.909Z,10.20
2019-05-03T04:43:17.033Z,10.20
2019-05-03T04:45:49.771Z,10.20
2019-05-03T04:48:18.739Z,10.20
2019-05-03T04:50:48.944Z,10.20
2019-05-03T04:53:17.751Z,10.10
2019-05-03T04:55:48.655Z,10.10
2019-05-03T04:58:21.084Z,10.10
2019-05-03T05:00:52.204Z,10.10
2019-05-03T05:03:20.774Z,10.10
2019-05-03T05:05:55.363Z,10.10
2019-05-03T05:08:25.300Z,10.10
2019-05-03T05:10:55.906Z,10.10
2019-05-03T05:13:28.704Z,10.20
2019-05-03T05:15:57.254Z,10.10
2019-05-03T05:18:31.319Z,10.20
2019-05-03T05:21:05.110Z,10.20
2019-05-03T05:23:35.480Z,10.30
2019-05-03T05:26:14.481Z,10.30
2019-05-03T05:28:54.872Z,10.40
2019-05-03T05:31:25.429Z,10.40
2019-05-03T05:33:54.521Z,10.40
2019-05-03T05:36:24.394Z,10.50
2019-05-03T05:38:55.877Z,10.70
2019-05-03T05:41:24.755Z,10.70
2019-05-03T05:43:57.421Z,10.80
2019-05-03T05:46:27.699Z,10.90
2019-05-03T05:48:56.323Z,11.10
2019-05-03T05:51:24.938Z,11.20
2019-05-03T05:53:58.670Z,11.30
2019-05-03T05:56:37.712Z,11.40
2019-05-03T05:59:08.053Z,11.40
2019-05-03T06:01:45.608Z,11.50
2019-05-03T06:04:15.397Z,11.50
2019-05-03T06:06:51.607Z,11.60
2019-05-03T06:09:35.396Z,11.80
2019-05-03T06:12:08.535Z,11.80
2019-05-03T06:14:39.712Z,11.90
2019-05-03T06:17:18.930Z,12.00
2019-05-03T06:19:52.664Z,12.00
2019-05-03T06:22:22.860Z,12.00
2019-05-03T06:24:54.801Z,12.10
2019-05-03T06:27:28.150Z,12.10
2019-05-03T06:29:58.876Z,12.10
2019-05-03T06:32:29.522Z,12.20
2019-05-03T06:34:58.534Z,12.20
2019-05-03T06:37:39.127Z,12.30
2019-05-03T06:40:09.629Z,12.30
2019-05-03T06:42:50.978Z,12.20
2019-05-03T06:45:12.078Z,12.10
2019-05-03T06:47:45.919Z,12.10
2019-05-03T06:50:14.354Z,12.10
2019-05-03T06:52:44.544Z,12.20
2019-05-03T06:55:14.564Z,12.20
2019-05-03T06:57:45.606Z,12.10
2019-05-03T07:00:24.747Z,12.20
2019-05-03T07:02:57.837Z,12.10
2019-05-03T07:05:29.564Z,12.00
2019-05-03T07:08:01.396Z,12.00
2019-05-03T07:10:35.282Z,12.10
2019-05-03T07:13:09.217Z,12.10
2019-05-03T07:15:40.010Z,12.10
2019-05-03T07:18:08.951Z,12.10
2019-05-03T07:20:47.250Z,12.10
2019-05-03T07:23:15.788Z,12.10
2019-05-03T07:25:46.775Z,12.20
2019-05-03T07:28:15.454Z,12.30
2019-05-03T07:30:45.455Z,12.30
2019-05-03T07:33:18.991Z,12.40
2019-05-03T07:35:51.317Z,12.60
2019-05-03T07:38:20.444Z,12.80
2019-05-03T07:40:49.749Z,13.00
2019-05-03T07:43:18.944Z,13.40
2019-05-03T07:45:47.479Z,13.60
2019-05-03T07:48:17.088Z,13.70
2019-05-03T07:50:46.344Z,14.20
2019-05-03T07:53:15.284Z,14.60
2019-05-03T07:55:45.796Z,14.70
2019-05-03T07:58:27.160Z,14.70
2019-05-03T08:01:06.204Z,15.00
2019-05-03T08:03:30.286Z,15.20
2019-05-03T08:06:01.787Z,15.30
2019-05-03T08:08:32.194Z,15.10
2019-05-03T08:11:02.064Z,15.20
2019-05-03T08:13:31.500Z,15.10
2019-05-03T08:16:00.268Z,14.90
2019-05-03T08:18:29.118Z,14.70
2019-05-03T08:20:58.666Z,14.40
2019-05-03T08:23:30.303Z,14.50
2019-05-03T08:25:58.892Z,14.50
2019-05-03T08:28:28.430Z,14.50
2019-05-03T08:31:15.126Z,14.40
2019-05-03T08:33:55.333Z,14.30
2019-05-03T08:36:25.690Z,14.10
2019-05-03T08:38:56.370Z,14.30
2019-05-03T08:41:26.504Z,14.40
2019-05-03T08:43:59.434Z,14.50
2019-05-03T08:46:39.097Z,14.60
2019-05-03T08:49:08.781Z,14.90
2019-05-03T08:51:41.030Z,14.90
2019-05-03T08:54:15.968Z,14.80
2019-05-03T08:56:47.874Z,14.90
2019-05-03T08:59:29.694Z,15.00
2019-05-03T09:01:57.074Z,15.20
2019-05-03T09:04:36.631Z,15.40
2019-05-03T09:06:56.119Z,15.80
2019-05-03T09:09:45.970Z,15.80
2019-05-03T09:12:14.596Z,15.70
2019-05-03T09:14:46.379Z,15.70
2019-05-03T09:17:15.276Z,15.60
2019-05-03T09:19:45.347Z,15.40
2019-05-03T09:22:14.797Z,15.60
2019-05-03T09:25:02.067Z,15.50
2019-05-03T09:27:31.199Z,15.50
2019-05-03T09:30:00.173Z,15.50
2019-05-03T09:32:28.518Z,15.80
2019-05-03T09:34:57.240Z,16.30
2019-05-03T09:37:26.154Z,16.80
2019-05-03T09:39:55.169Z,17.20
2019-05-03T09:42:24.779Z,17.30
2019-05-03T09:44:55.434Z,17.80
2019-05-03T09:47:25.209Z,18.10
2019-05-03T09:49:55.865Z,18.30
2019-05-03T09:52:25.117Z,18.30
2019-05-03T09:54:58.406Z,18.70
2019-05-03T09:57:27.825Z,19.60
2019-05-03T10:00:00.143Z,19.90
2019-05-03T10:02:28.975Z,20.10
2019-05-03T10:04:59.187Z,20.00
2019-05-03T10:07:28.869Z,19.40
2019-05-03T10:09:58.652Z,18.90
2019-05-03T10:12:27.100Z,19.00
2019-05-03T10:14:56.400Z,18.80
2019-05-03T10:17:35.035Z,18.40
2019-05-03T10:20:07.294Z,18.10
2019-05-03T10:22:36.817Z,17.50
2019-05-03T10:25:07.570Z,17.20
2019-05-03T10:27:48.072Z,17.00
2019-05-03T10:30:23.500Z,16.90
2019-05-03T10:33:09.827Z,16.60
2019-05-03T10:35:38.816Z,16.40
2019-05-03T10:38:07.785Z,16.20
2019-05-03T10:40:37.187Z,15.70
2019-05-03T10:43:13.286Z,14.80
2019-05-03T10:45:45.022Z,14.20
2019-05-03T10:48:24.841Z,13.50
2019-05-03T10:50:56.413Z,12.90
2019-05-03T10:53:36.586Z,12.40
2019-05-03T10:56:26.764Z,11.90
2019-05-03T10:58:54.938Z,11.70
2019-05-03T11:01:49.922Z,11.30
2019-05-03T11:04:27.164Z,11.00
2019-05-03T11:06:56.017Z,10.70
2019-05-03T11:09:28.742Z,10.50
2019-05-03T11:12:01.647Z,10.40
2019-05-03T11:14:32.198Z,10.20
2019-05-03T11:17:06.369Z,10.10
2019-05-03T11:19:38.235Z,10.10
2019-05-03T11:22:06.881Z,10.00
2019-05-03T11:24:35.837Z,10.00
2019-05-03T11:27:06.092Z,10.10
2019-05-03T11:29:35.573Z,10.00
2019-05-03T11:32:18.067Z,10.00
2019-05-03T11:35:24.592Z,10.00
2019-05-03T11:37:56.362Z,10.10
2019-05-03T11:40:28.650Z,10.20
2019-05-03T11:43:16.527Z,10.30
2019-05-03T11:45:46.214Z,10.40
2019-05-03T11:48:15.004Z,10.40
2019-05-03T11:50:45.304Z,10.40
2019-05-03T11:53:19.888Z,10.30
2019-05-03T11:55:54.951Z,10.20
2019-05-03T11:58:27.078Z,10.10
2019-05-03T12:01:18.852Z,10.10
2019-05-03T12:03:47.484Z,10.10
2019-05-03T12:06:18.363Z,10.10
2019-05-03T12:08:49.547Z,10.00
2019-05-03T12:11:27.163Z,10.00
2019-05-03T12:14:12.482Z,9.80
2019-05-03T12:19:20.048Z,9.80
2019-05-03T12:21:45.809Z,9.70
2019-05-03T12:24:17.666Z,9.70
2019-05-03T12:26:56.404Z,9.80
2019-05-03T12:29:36.272Z,9.80
2019-05-03T12:32:05.265Z,9.70
2019-05-03T12:34:48.306Z,9.80
2019-05-03T12:37:24.458Z,9.70
2019-05-03T12:40:00.832Z,9.80
2019-05-03T12:42:29.968Z,9.90
2019-05-03T12:45:01.856Z,9.90
2019-05-03T12:47:36.730Z,9.80
2019-05-03T12:50:06.831Z,9.70
2019-05-03T12:52:49.878Z,9.80
2019-05-03T12:55:08.474Z,9.80
2019-05-03T12:57:41.317Z,9.90
2019-05-03T13:00:18.348Z,9.90
2019-05-03T13:02:49.440Z,9.90
2019-05-03T13:05:19.700Z,10.00
2019-05-03T13:08:11.361Z,10.00
2019-05-03T13:10:40.673Z,9.90
2019-05-03T13:13:09.863Z,9.90
2019-05-03T13:15:49.272Z,9.90
2019-05-03T13:18:18.425Z,9.90
2019-05-03T13:20:48.886Z,9.90
2019-05-03T13:23:30.269Z,9.90
2019-05-03T13:26:05.577Z,9.90
2019-05-03T13:28:37.368Z,9.90
2019-05-03T13:31:10.562Z,9.70
2019-05-03T13:33:42.716Z,9.60
2019-05-03T13:36:15.199Z,9.60
2019-05-03T13:38:45.412Z,9.60
2019-05-03T13:41:14.931Z,9.70
2019-05-03T13:43:45.790Z,9.60
2019-05-03T13:46:18.325Z,9.60
2019-05-03T13:48:49.267Z,9.50
2019-05-03T13:51:19.071Z,9.50
2019-05-03T13:53:49.445Z,9.30
2019-05-03T13:56:18.094Z,9.30
2019-05-03T13:58:48.398Z,9.30
2019-05-03T14:01:19.087Z,9.20
2019-05-03T14:03:58.173Z,9.10
2019-05-03T14:06:33.660Z,9.10
2019-05-03T14:09:12.752Z,8.90
2019-05-03T14:11:51.860Z,8.90
2019-05-03T14:14:21.989Z,9.10
2019-05-03T14:17:01.090Z,9.20
2019-05-03T14:19:41.783Z,9.40
2019-05-03T14:22:20.493Z,9.40
2019-05-03T14:25:04.595Z,9.30
2019-05-03T14:27:43.075Z,9.20
2019-05-03T14:30:14.687Z,9.30
2019-05-03T14:32:45.309Z,9.20
2019-05-03T14:35:17.757Z,9.30
2019-05-03T14:37:51.646Z,9.10
2019-05-03T14:40:21.614Z,9.20
2019-05-03T14:42:55.521Z,9.20
2019-05-03T14:45:22.725Z,9.30
2019-05-03T14:47:57.751Z,9.30
2019-05-03T14:50:26.620Z,9.30
2019-05-03T14:53:05.229Z,9.30
2019-05-03T14:55:41.565Z,9.20
2019-05-03T14:58:17.512Z,9.10
2019-05-03T15:00:59.756Z,9.00
2019-05-03T15:03:30.132Z,9.10
2019-05-03T15:05:59.559Z,9.10
2019-05-03T15:08:28.869Z,9.00
2019-05-03T15:10:58.324Z,9.00
2019-05-03T15:13:28.136Z,9.00
2019-05-03T15:15:58.584Z,9.10
2019-05-03T15:18:30.069Z,9.10
2019-05-03T15:21:19.690Z,9.10
2019-05-03T15:23:54.688Z,9.20
2019-05-03T15:26:26.254Z,9.10
2019-05-03T15:28:56.192Z,9.10
2019-05-03T15:31:41.790Z,9.10
2019-05-03T15:34:12.176Z,9.10
2019-05-03T15:36:41.274Z,9.00
2019-05-03T15:39:11.611Z,9.00
2019-05-03T15:41:42.266Z,9.00
2019-05-03T15:44:27.757Z,9.10
2019-05-03T15:47:09.585Z,9.10
2019-05-03T15:49:35.749Z,9.10
2019-05-03T15:52:04.769Z,9.10
2019-05-03T15:54:35.202Z,9.20
2019-05-03T15:57:05.623Z,9.20
2019-05-03T15:59:35.405Z,9.20
2019-05-03T16:02:18.773Z,9.30
2019-05-03T16:04:52.196Z,9.30
2019-05-03T16:07:26.034Z,9.30
2019-05-03T16:09:58.075Z,9.30
2019-05-03T16:12:26.685Z,9.30
2019-05-03T16:14:59.520Z,9.30
2019-05-03T16:17:35.295Z,9.30
2019-05-03T16:20:10.887Z,9.40
2019-05-03T16:22:39.614Z,9.40
2019-05-03T16:25:14.179Z,9.40
2019-05-03T16:28:00.025Z,9.30
2019-05-03T16:30:49.236Z,9.30
2019-05-03T16:33:27.188Z,9.30
2019-05-03T16:35:52.042Z,9.30
2019-05-03T16:38:28.672Z,9.20
2019-05-03T16:40:57.136Z,9.20
2019-05-03T16:43:27.555Z,9.30
2019-05-03T16:46:00.311Z,9.40
2019-05-03T16:48:35.173Z,9.30
2019-05-03T16:51:09.356Z,9.20
2019-05-03T16:53:44.521Z,9.10
2019-05-03T16:56:24.528Z,9.20
2019-05-03T16:58:55.014Z,9.10
2019-05-03T17:01:24.426Z,9.10
2019-05-03T17:04:00.376Z,9.10
2019-05-03T17:06:39.932Z,9.00
2019-05-03T17:09:14.550Z,9.10
2019-05-03T17:11:43.361Z,9.10
2019-05-03T17:14:15.959Z,9.10
2019-05-03T17:16:55.408Z,9.10
2019-05-03T17:19:29.943Z,9.20
2019-05-03T17:22:00.968Z,9.20
2019-05-03T17:24:35.666Z,9.20
2019-05-03T17:27:06.909Z,9.20
2019-05-03T17:29:36.490Z,9.10
2019-05-03T17:32:05.145Z,9.00
2019-05-03T17:34:39.252Z,8.90
2019-05-03T17:37:09.145Z,8.80
2019-05-03T17:39:46.685Z,8.70
2019-05-03T17:42:29.881Z,8.50
2019-05-03T17:44:59.071Z,8.20
2019-05-03T17:47:28.907Z,8.00
2019-05-03T17:50:05.292Z,7.70
2019-05-03T17:52:50.543Z,7.70
2019-05-03T17:55:32.858Z,7.60
2019-05-03T17:58:24.292Z,7.50
2019-05-03T18:00:57.423Z,7.40
2019-05-03T18:03:28.016Z,7.30
2019-05-03T18:06:04.691Z,7.30
2019-05-03T18:08:36.093Z,7.20
2019-05-03T18:11:12.495Z,7.10
2019-05-03T18:13:41.204Z,7.10
2019-05-03T18:16:09.741Z,7.10
2019-05-03T18:18:38.400Z,7.10
2019-05-03T18:21:07.338Z,7.10
2019-05-03T18:23:36.693Z,7.10
2019-05-03T18:26:05.811Z,7.00
2019-05-03T18:28:35.603Z,7.10
2019-05-03T18:31:05.156Z,7.00
2019-05-03T18:33:33.989Z,7.00
2019-05-03T18:36:02.665Z,7.00
2019-05-03T18:38:35.219Z,7.00
2019-05-03T18:41:04.988Z,6.90
2019-05-03T18:43:35.572Z,6.80
2019-05-03T18:46:09.116Z,6.70
2019-05-03T18:48:41.175Z,6.70
2019-05-03T18:51:17.490Z,6.60
2019-05-03T18:53:57.625Z,6.60
2019-05-03T18:56:29.192Z,6.70
2019-05-03T18:59:04.958Z,6.70
2019-05-03T19:01:35.451Z,6.80
2019-05-03T19:04:14.562Z,6.80
2019-05-03T19:06:48.517Z,6.80
2019-05-03T19:09:25.061Z,6.80
2019-05-03T19:11:56.777Z,6.60
2019-05-03T19:14:27.742Z,6.50
2019-05-03T19:17:02.262Z,6.30
2019-05-03T19:19:35.141Z,6.20
2019-05-03T19:22:06.218Z,6.10
2019-05-03T19:24:41.337Z,6.00
2019-05-03T19:27:12.636Z,5.90
2019-05-03T19:29:41.323Z,5.80
2019-05-03T19:32:11.041Z,5.70
2019-05-03T19:34:48.436Z,5.60
2019-05-03T19:37:14.212Z,5.60
2019-05-03T19:39:42.799Z,5.50
2019-05-03T19:42:13.092Z,5.50
2019-05-03T19:44:46.093Z,5.40
2019-05-03T19:47:16.336Z,5.40
2019-05-03T19:49:46.657Z,5.30
2019-05-03T19:52:19.017Z,5.40
2019-05-03T19:55:01.178Z,5.40
2019-05-03T19:57:38.781Z,5.50
2019-05-03T20:00:09.849Z,5.70
2019-05-03T20:02:49.429Z,5.80
2019-05-03T20:05:34.485Z,5.90
2019-05-03T20:08:09.108Z,6.00
2019-05-03T20:10:39.570Z,6.10
2019-05-03T20:13:12.037Z,6.20
2019-05-03T20:15:44.922Z,6.30
2019-05-03T20:18:30.014Z,6.40
2019-05-03T20:20:59.686Z,6.40
2019-05-03T20:23:37.965Z,6.50
2019-05-03T20:26:10.531Z,6.50
2019-05-03T20:28:39.630Z,6.40
2019-05-03T20:31:09.186Z,6.40
2019-05-03T20:33:45.763Z,6.30
2019-05-03T20:36:25.536Z,6.20
2019-05-03T20:39:05.465Z,6.10
2019-05-03T20:41:31.330Z,6.00
2019-05-03T20:44:10.857Z,5.90
2019-05-03T20:46:47.040Z,5.80
2019-05-03T20:49:16.574Z,5.70
2019-05-03T20:51:49.580Z,5.60
2019-05-03T20:54:18.098Z,5.50
2019-05-03T20:56:51.841Z,5.40
2019-05-03T20:59:21.588Z,5.40
2019-05-03T21:01:54.528Z,5.20
2019-05-03T21:04:26.497Z,5.20
2019-05-03T21:06:55.513Z,5.10
2019-05-03T21:09:27.799Z,5.10
2019-05-03T21:11:58.366Z,5.00
2019-05-03T21:14:29.397Z,5.00
2019-05-03T21:17:18.540Z,4.90
2019-05-03T21:19:50.606Z,4.90
2019-05-03T21:22:24.818Z,4.90
2019-05-03T21:24:55.334Z,4.80
2019-05-03T21:27:24.639Z,4.80
2019-05-03T21:29:56.062Z,4.80
2019-05-03T21:32:28.884Z,4.80
2019-05-03T21:34:58.299Z,4.90
2019-05-03T21:37:27.966Z,4.90
2019-05-03T21:39:56.734Z,4.80
2019-05-03T21:42:30.236Z,4.80
2019-05-03T21:44:58.798Z,4.70
2019-05-03T21:47:29.036Z,4.70
2019-05-03T21:49:59.539Z,4.60
2019-05-03T21:52:28.204Z,4.60
2019-05-03T21:54:57.128Z,4.60
2019-05-03T21:57:25.868Z,4.50
2019-05-03T21:59:54.991Z,4.50
2019-05-03T22:02:24.690Z,4.50
2019-05-03T22:05:01.060Z,4.50
2019-05-03T22:07:29.863Z,4.40
2019-05-03T22:10:11.764Z,4.30
2019-05-03T22:12:47.418Z,4.40
2019-05-03T22:15:39.981Z,4.40
2019-05-03T22:18:18.867Z,4.50
2019-05-03T22:21:02.377Z,4.60
2019-05-03T22:23:38.667Z,4.60
2019-05-03T22:26:08.082Z,4.70
2019-05-03T22:28:36.692Z,4.80
2019-05-03T22:31:06.831Z,4.90
2019-05-03T22:33:35.514Z,4.90
2019-05-03T22:36:08.684Z,4.90
2019-05-03T22:38:38.300Z,5.00
2019-05-03T22:41:07.355Z,5.00
2019-05-03T22:43:35.812Z,5.00
2019-05-03T22:46:14.447Z,5.00
2019-05-03T22:48:42.234Z,4.90
2019-05-03T22:51:17.176Z,4.90
2019-05-03T22:53:46.241Z,4.80
2019-05-03T22:56:14.868Z,4.80
2019-05-03T22:58:45.636Z,4.70
2019-05-03T23:01:25.630Z,4.70
2019-05-03T23:03:55.157Z,4.70
2019-05-03T23:06:25.178Z,4.70
2019-05-03T23:08:56.394Z,4.60
2019-05-03T23:11:25.029Z,4.70
2019-05-03T23:14:04.928Z,4.60
2019-05-03T23:16:45.105Z,4.60
2019-05-03T23:19:14.678Z,4.50
2019-05-03T23:22:15.351Z,4.60
2019-05-03T23:24:44.548Z,4.60
2019-05-03T23:27:38.358Z,4.80
2019-05-03T23:30:24.780Z,4.80
2019-05-03T23:32:56.464Z,4.90
2019-05-03T23:35:30.992Z,4.90
2019-05-03T23:38:00.099Z,5.00
2019-05-03T23:40:28.727Z,5.00
2019-05-03T23:43:09.568Z,5.00
2019-05-03T23:45:50.228Z,5.00
2019-05-03T23:48:26.389Z,5.00
2019-05-03T23:50:55.938Z,4.90
2019-05-03T23:53:25.801Z,4.90
2019-05-03T23:56:04.403Z,4.90
2019-05-03T23:58:41.900Z,4.90
